createdAt,value
2023-01-30T00:01:08.675Z,100975.75
2023-01-30T00:04:17.338Z,100956.72
2023-01-30T00:07:38.524Z,100941.16
2023-01-30T00:10:46.921Z,100932.44
2023-01-30T00:13:52.216Z,100918.66
2023-01-30T00:17:09.038Z,100903.09
2023-01-30T00:20:30.253Z,100888.22
2023-01-30T00:23:36.987Z,100886.38
2023-01-30T00:26:50.457Z,100879.44
2023-01-30T00:30:02.704Z,100865.56
2023-01-30T00:33:09.391Z,100851.53
2023-01-30T00:36:14.223Z,100842.81
2023-01-30T00:39:18.761Z,100832.50
2023-01-30T00:42:41.644Z,100818.47
2023-01-30T00:46:06.286Z,100828.75
2023-01-30T00:49:13.569Z,100806.31
2023-01-30T00:52:18.014Z,100803.56
2023-01-30T00:55:22.453Z,100791.34
2023-01-30T00:58:26.972Z,100785.28
2023-01-30T01:01:31.861Z,100787.91
2023-01-30T01:04:43.241Z,100783.59
2023-01-30T01:07:48.083Z,100777.56
2023-01-30T01:10:52.850Z,100766.22
2023-01-30T01:14:02.466Z,100767.03
2023-01-30T01:17:06.737Z,100760.09
2023-01-30T01:20:12.038Z,100754.84
2023-01-30T01:23:19.931Z,100753.00
2023-01-30T01:26:24.418Z,100748.69
2023-01-30T01:29:29.002Z,100753.13
2023-01-30T01:32:33.703Z,100770.41
2023-01-30T01:35:41.592Z,100744.44
2023-01-30T01:38:46.171Z,100733.88
2023-01-30T01:41:51.099Z,100721.75
2023-01-30T01:45:14.095Z,100736.41
2023-01-30T01:48:48.143Z,100725.91
2023-01-30T01:52:03.987Z,100715.59
2023-01-30T01:55:08.959Z,100705.13
2023-01-30T01:58:28.040Z,100692.81
2023-01-30T02:01:32.613Z,100698.91
2023-01-30T02:05:02.211Z,100692.81
2023-01-30T02:08:27.368Z,100690.94
2023-01-30T02:11:46.663Z,100696.94
2023-01-30T02:14:51.996Z,100697.69
2023-01-30T02:17:59.759Z,100676.84
2023-01-30T02:21:35.141Z,100675.75
2023-01-30T02:25:21.259Z,100667.56
2023-01-30T02:29:15.294Z,100663.03
2023-01-30T02:32:54.960Z,100667.00
2023-01-30T02:36:30.202Z,100671.94
2023-01-30T02:40:16.759Z,100664.94
2023-01-30T02:44:05.386Z,100654.25
2023-01-30T02:47:46.759Z,100665.47
2023-01-30T02:51:31.968Z,100693.06
2023-01-30T02:54:36.600Z,100712.31
2023-01-30T02:57:41.091Z,100685.28
2023-01-30T03:00:51.152Z,100702.91
2023-01-30T03:04:04.590Z,100705.59
2023-01-30T03:08:13.592Z,100694.66
2023-01-30T03:11:15.814Z,100690.56
2023-01-30T03:14:55.621Z,100697.72
2023-01-30T03:18:04.077Z,100700.66
2023-01-30T03:21:13.571Z,100699.91
2023-01-30T03:24:21.134Z,100693.97
2023-01-30T03:27:58.689Z,100676.94
2023-01-30T03:31:11.682Z,100674.66
2023-01-30T03:34:22.773Z,100681.66
2023-01-30T03:37:35.519Z,100688.88
2023-01-30T03:40:40.517Z,100687.19
2023-01-30T03:44:02.442Z,100678.53
2023-01-30T03:47:13.084Z,100658.69
2023-01-30T03:50:30.870Z,100644.88
2023-01-30T03:53:42.369Z,100658.69
2023-01-30T03:56:49.746Z,100664.78
2023-01-30T03:59:54.336Z,100659.56
2023-01-30T04:02:59.100Z,100662.97
2023-01-30T04:06:03.613Z,100662.22
2023-01-30T04:09:07.777Z,100660.41
2023-01-30T04:12:12.369Z,100665.69
2023-01-30T04:15:17.122Z,100639.59
2023-01-30T04:18:22.032Z,100635.31
2023-01-30T04:21:26.307Z,100613.75
2023-01-30T04:24:30.512Z,100610.13
2023-01-30T04:27:34.819Z,100624.97
2023-01-30T04:30:39.076Z,100625.00
2023-01-30T04:33:43.977Z,100631.16
2023-01-30T04:36:48.386Z,100644.22
2023-01-30T04:39:52.556Z,100633.84
2023-01-30T04:42:56.783Z,100639.13
2023-01-30T04:46:01.231Z,100653.91
2023-01-30T04:49:05.696Z,100657.44
2023-01-30T04:52:10.005Z,100645.22
2023-01-30T04:55:14.176Z,100646.13
2023-01-30T04:58:21.890Z,100653.16
2023-01-30T05:01:31.350Z,100652.19
2023-01-30T05:04:35.839Z,100649.59
2023-01-30T05:07:40.368Z,100653.91
2023-01-30T05:10:45.060Z,100652.28
2023-01-30T05:13:49.814Z,100661.84
2023-01-30T05:16:54.493Z,100659.28
2023-01-30T05:19:58.914Z,100652.47
2023-01-30T05:23:03.326Z,100646.38
2023-01-30T05:26:08.136Z,100648.94
2023-01-30T05:29:13.809Z,100646.44
2023-01-30T05:32:20.361Z,100645.59
2023-01-30T05:35:24.721Z,100632.56
2023-01-30T05:38:29.299Z,100637.63
2023-01-30T05:41:33.499Z,100635.22
2023-01-30T05:44:37.983Z,100643.00
2023-01-30T05:47:42.620Z,100642.16
2023-01-30T05:50:47.548Z,100629.25
2023-01-30T05:53:52.821Z,100636.19
2023-01-30T05:56:57.189Z,100633.59
2023-01-30T06:00:01.332Z,100632.06
2023-01-30T06:03:05.760Z,100631.97
2023-01-30T06:06:11.449Z,100631.22
2023-01-30T06:09:16.179Z,100626.78
2023-01-30T06:12:20.355Z,100630.03
2023-01-30T06:15:24.550Z,100625.63
2023-01-30T06:18:29.276Z,100620.44
2023-01-30T06:21:34.134Z,100624.69
2023-01-30T06:24:38.536Z,100625.47
2023-01-30T06:27:43.418Z,100621.00
2023-01-30T06:30:47.574Z,100632.28
2023-01-30T06:33:51.845Z,100627.91
2023-01-30T06:36:56.288Z,100630.53
2023-01-30T06:40:00.798Z,100630.44
2023-01-30T06:43:05.720Z,100638.25
2023-01-30T06:46:09.948Z,100630.56
2023-01-30T06:49:14.701Z,100625.53
2023-01-30T06:52:19.348Z,100627.25
2023-01-30T06:55:26.931Z,100627.28
2023-01-30T06:58:31.914Z,100628.16
2023-01-30T07:01:37.380Z,100639.34
2023-01-30T07:04:41.659Z,100644.66
2023-01-30T07:07:45.698Z,100647.09
2023-01-30T07:10:50.266Z,100645.34
2023-01-30T07:13:54.686Z,100634.81
2023-01-30T07:16:59.029Z,100636.53
2023-01-30T07:20:03.641Z,100618.38
2023-01-30T07:23:08.992Z,100629.78
2023-01-30T07:26:13.136Z,100637.41
2023-01-30T07:29:17.647Z,100638.00
2023-01-30T07:32:22.655Z,100630.91
2023-01-30T07:35:31.103Z,100619.69
2023-01-30T07:38:35.544Z,100631.75
2023-01-30T07:41:39.698Z,100625.72
2023-01-30T07:44:43.865Z,100631.00
2023-01-30T07:47:48.371Z,100624.09
2023-01-30T07:50:57.109Z,100627.41
2023-01-30T07:54:02.058Z,100604.91
2023-01-30T07:57:06.329Z,100605.66
2023-01-30T08:00:12.240Z,100592.63
2023-01-30T08:03:17.539Z,100580.25
2023-01-30T08:06:21.935Z,100561.03
2023-01-30T08:09:26.336Z,100554.16
2023-01-30T08:12:30.828Z,100526.50
2023-01-30T08:15:35.279Z,100493.56
2023-01-30T08:18:39.762Z,100479.69
2023-01-30T08:21:43.935Z,100465.84
2023-01-30T08:24:48.071Z,100452.88
2023-01-30T08:27:53.383Z,100449.34
2023-01-30T08:30:58.162Z,100458.44
2023-01-30T08:34:02.481Z,100445.88
2023-01-30T08:37:06.715Z,100438.47
2023-01-30T08:40:11.768Z,100440.47
2023-01-30T08:43:16.187Z,100442.31
2023-01-30T08:46:22.062Z,100440.34
2023-01-30T08:49:26.990Z,100441.75
2023-01-30T08:52:33.661Z,100435.34
2023-01-30T08:55:38.257Z,100420.09
2023-01-30T08:58:43.819Z,100412.84
2023-01-30T09:01:48.246Z,100424.59
2023-01-30T09:04:52.597Z,100418.41
2023-01-30T09:07:56.887Z,100408.78
2023-01-30T09:11:04.998Z,100400.28
2023-01-30T09:14:10.188Z,100382.84
2023-01-30T09:17:14.518Z,100373.31
2023-01-30T09:20:20.806Z,100344.81
2023-01-30T09:23:25.456Z,100328.50
2023-01-30T09:26:29.798Z,100331.16
2023-01-30T09:29:34.238Z,100321.50
2023-01-30T09:32:38.496Z,100315.47
2023-01-30T09:35:43.015Z,100309.50
2023-01-30T09:38:47.211Z,100305.78
2023-01-30T09:42:40.950Z,100299.97
2023-01-30T09:46:30.571Z,100292.97
2023-01-30T09:50:19.763Z,100291.59
2023-01-30T09:53:52.547Z,100290.31
2023-01-30T09:57:22.161Z,100295.72
2023-01-30T10:00:42.285Z,100300.72
2023-01-30T10:05:00.078Z,100304.34
2023-01-30T10:08:35.526Z,100302.72
2023-01-30T10:12:21.786Z,100295.78
2023-01-30T10:15:44.632Z,100263.69
2023-01-30T10:19:26.150Z,100274.63
2023-01-30T10:23:13.262Z,100300.13
2023-01-30T10:26:23.241Z,100334.50
2023-01-30T10:29:38.554Z,100355.50
2023-01-30T10:32:48.978Z,100364.16
2023-01-30T10:36:15.403Z,100364.94
2023-01-30T10:40:00.699Z,100366.72
2023-01-30T10:43:36.176Z,100353.03
2023-01-30T10:47:03.554Z,100351.97
2023-01-30T10:50:16.795Z,100368.97
2023-01-30T10:53:51.262Z,100366.06
2023-01-30T10:57:45.293Z,100385.47
2023-01-30T11:01:07.574Z,100391.25
2023-01-30T11:04:38.654Z,100377.41
2023-01-30T11:07:46.047Z,100379.81
2023-01-30T11:10:52.300Z,100378.53
2023-01-30T11:14:06.885Z,100384.88
2023-01-30T11:17:18.414Z,100386.81
2023-01-30T11:20:24.914Z,100390.72
2023-01-30T11:23:43.181Z,100393.78
2023-01-30T11:26:48.818Z,100367.00
2023-01-30T11:30:19.538Z,100376.31
2023-01-30T11:33:38.080Z,100393.44
2023-01-30T11:36:42.938Z,100389.84
2023-01-30T11:39:52.938Z,100435.41
2023-01-30T11:43:10.972Z,100413.00
2023-01-30T11:46:20.843Z,100403.81
2023-01-30T11:49:47.858Z,100399.63
2023-01-30T11:53:24.133Z,100372.06
2023-01-30T11:56:39.074Z,100370.28
2023-01-30T11:59:59.410Z,100368.28
2023-01-30T12:03:10.460Z,100376.47
2023-01-30T12:06:43.470Z,100395.03
2023-01-30T12:09:52.587Z,100387.09
2023-01-30T12:13:34.277Z,100391.16
2023-01-30T12:17:04.290Z,100396.97
2023-01-30T12:20:40.933Z,100399.69
2023-01-30T12:24:28.563Z,100394.69
2023-01-30T12:28:14.248Z,100401.81
2023-01-30T12:31:31.592Z,100387.44
2023-01-30T12:34:37.209Z,100390.88
2023-01-30T12:38:36.119Z,100380.53
2023-01-30T12:42:29.134Z,100370.31
2023-01-30T12:46:03.395Z,100361.69
2023-01-30T12:49:36.678Z,100367.44
2023-01-30T12:53:07.317Z,100373.84
2023-01-30T12:56:19.936Z,100372.97
2023-01-30T13:00:02.104Z,100371.78
2023-01-30T13:03:50.379Z,100360.50
2023-01-30T13:07:14.602Z,100370.16
2023-01-30T13:10:45.300Z,100367.06
2023-01-30T13:14:04.916Z,100369.72
2023-01-30T13:17:32.657Z,100379.50
2023-01-30T13:21:00.384Z,100400.44
2023-01-30T13:24:22.197Z,100405.56
2023-01-30T13:27:29.519Z,100403.94
2023-01-30T13:30:35.978Z,100410.75
2023-01-30T13:33:44.782Z,100431.28
2023-01-30T13:37:15.642Z,100440.41
2023-01-30T13:40:36.067Z,100450.47
2023-01-30T13:43:48.777Z,100426.75
2023-01-30T13:46:55.500Z,100443.00
2023-01-30T13:50:41.118Z,100443.59
2023-01-30T13:54:02.630Z,100452.97
2023-01-30T13:57:43.784Z,100448.22
2023-01-30T14:00:58.068Z,100457.50
2023-01-30T14:04:41.038Z,100459.28
2023-01-30T14:07:45.683Z,100467.13
2023-01-30T14:10:50.346Z,100477.44
2023-01-30T14:14:01.617Z,100486.16
2023-01-30T14:17:16.523Z,100495.81
2023-01-30T14:20:21.428Z,100509.00
2023-01-30T14:23:36.356Z,100500.47
2023-01-30T14:26:50.626Z,100532.59
2023-01-30T14:29:56.505Z,100545.44
2023-01-30T14:33:24.891Z,100564.22
2023-01-30T14:36:35.615Z,100560.59
2023-01-30T14:39:49.192Z,100548.34
2023-01-30T14:43:12.271Z,100545.69
2023-01-30T14:46:19.759Z,100559.47
2023-01-30T14:49:28.288Z,100570.69
2023-01-30T14:52:42.903Z,100569.94
2023-01-30T14:56:01.406Z,100553.66
2023-01-30T14:59:16.177Z,100566.06
2023-01-30T15:02:28.934Z,100564.69
2023-01-30T15:05:44.669Z,100573.38
2023-01-30T15:08:50.119Z,100577.75
2023-01-30T15:12:26.375Z,100582.38
2023-01-30T15:15:49.147Z,100614.63
2023-01-30T15:19:25.897Z,100620.84
2023-01-30T15:23:04.290Z,100632.41
2023-01-30T15:26:30.904Z,100645.38
2023-01-30T15:30:06.613Z,100646.28
2023-01-30T15:33:29.993Z,100646.16
2023-01-30T15:36:36.605Z,100662.72
2023-01-30T15:39:40.757Z,100681.25
2023-01-30T15:42:50.324Z,100690.94
2023-01-30T15:46:28.299Z,100702.34
2023-01-30T15:50:01.629Z,100714.41
2023-01-30T15:53:14.806Z,100734.28
2023-01-30T15:56:27.550Z,100739.66
2023-01-30T15:59:40.053Z,100762.25
2023-01-30T16:02:45.235Z,100769.34
2023-01-30T16:05:56.363Z,100765.06
2023-01-30T16:09:20.451Z,100789.38
2023-01-30T16:12:29.869Z,100787.84
2023-01-30T16:15:53.110Z,100806.13
2023-01-30T16:19:02.740Z,100813.88
2023-01-30T16:22:28.418Z,100828.78
2023-01-30T16:25:34.502Z,100827.94
2023-01-30T16:28:39.133Z,100830.34
2023-01-30T16:31:47.885Z,100818.13
2023-01-30T16:35:27.159Z,100838.16
2023-01-30T16:38:35.109Z,100845.25
2023-01-30T16:41:42.811Z,100850.50
2023-01-30T16:44:48.055Z,100854.94
2023-01-30T16:47:53.506Z,100855.75
2023-01-30T16:51:01.592Z,100864.34
2023-01-30T16:54:28.563Z,100882.66
2023-01-30T16:58:06.789Z,100886.84
2023-01-30T17:01:11.693Z,100897.13
2023-01-30T17:04:33.314Z,100903.31
2023-01-30T17:07:38.190Z,100920.75
2023-01-30T17:10:42.392Z,100922.47
2023-01-30T17:13:46.797Z,100939.94
2023-01-30T17:17:08.215Z,100950.50
2023-01-30T17:20:18.595Z,100950.63
2023-01-30T17:23:23.026Z,100953.34
2023-01-30T17:26:28.303Z,100949.13
2023-01-30T17:29:42.506Z,100958.69
2023-01-30T17:32:50.577Z,100961.38
2023-01-30T17:35:55.047Z,100956.22
2023-01-30T17:39:00.337Z,100954.38
2023-01-30T17:42:12.652Z,100939.53
2023-01-30T17:45:17.155Z,100940.38
2023-01-30T17:48:21.845Z,100937.81
2023-01-30T17:51:26.121Z,100944.78
2023-01-30T17:54:30.427Z,100941.38
2023-01-30T17:57:34.717Z,100937.91
2023-01-30T18:00:38.916Z,100935.38
2023-01-30T18:03:43.912Z,100943.25
2023-01-30T18:06:55.894Z,100959.84
2023-01-30T18:10:00.227Z,100984.97
2023-01-30T18:13:04.292Z,100990.34
2023-01-30T18:16:20.926Z,100991.16
2023-01-30T18:19:27.076Z,100999.00
2023-01-30T18:22:32.522Z,101002.47
2023-01-30T18:25:36.971Z,101022.22
2023-01-30T18:28:41.195Z,101033.47
2023-01-30T18:31:45.832Z,101045.63
2023-01-30T18:34:50.717Z,101051.66
2023-01-30T18:37:59.406Z,101032.72
2023-01-30T18:41:29.893Z,101039.66
2023-01-30T18:44:35.708Z,101051.03
2023-01-30T18:47:39.969Z,101049.41
2023-01-30T18:50:44.564Z,101051.94
2023-01-30T18:53:53.515Z,101072.72
2023-01-30T18:56:58.146Z,101060.56
2023-01-30T19:00:02.912Z,101061.44
2023-01-30T19:03:07.502Z,101079.53
2023-01-30T19:06:14.167Z,101090.84
2023-01-30T19:09:19.058Z,101107.44
2023-01-30T19:12:42.422Z,101109.22
2023-01-30T19:15:46.925Z,101104.88
2023-01-30T19:18:52.830Z,101095.38
2023-01-30T19:21:57.789Z,101116.28
2023-01-30T19:25:02.486Z,101121.47
2023-01-30T19:28:06.843Z,101129.25
2023-01-30T19:31:15.486Z,101142.34
2023-01-30T19:34:19.832Z,101145.81
2023-01-30T19:37:24.915Z,101152.78
2023-01-30T19:40:29.328Z,101167.44
2023-01-30T19:43:33.452Z,101164.81
2023-01-30T19:46:37.874Z,101169.88
2023-01-30T19:49:42.416Z,101176.84
2023-01-30T19:52:47.287Z,101176.88
2023-01-30T19:55:51.870Z,101180.44
2023-01-30T19:58:59.364Z,101183.81
2023-01-30T20:02:03.843Z,101177.72
2023-01-30T20:05:09.715Z,101176.03
2023-01-30T20:08:22.049Z,101189.88
2023-01-30T20:11:36.271Z,101187.38
2023-01-30T20:14:40.540Z,101178.78
2023-01-30T20:17:45.016Z,101178.81
2023-01-30T20:20:49.601Z,101180.56
2023-01-30T20:23:54.539Z,101178.75
2023-01-30T20:26:59.054Z,101202.09
2023-01-30T20:30:03.708Z,101209.78
2023-01-30T20:33:08.253Z,101220.00
2023-01-30T20:36:18.719Z,101242.66
2023-01-30T20:39:22.877Z,101258.41
2023-01-30T20:42:28.228Z,101265.50
2023-01-30T20:45:32.503Z,101270.78
2023-01-30T20:48:38.712Z,101279.47
2023-01-30T20:51:43.405Z,101291.63
2023-01-30T20:54:47.835Z,101305.44
2023-01-30T20:57:52.691Z,101310.53
2023-01-30T21:01:05.914Z,101308.78
2023-01-30T21:04:13.751Z,101323.72
2023-01-30T21:07:18.219Z,101339.34
2023-01-30T21:10:22.578Z,101355.75
2023-01-30T21:13:26.913Z,101351.38
2023-01-30T21:16:34.474Z,101362.53
2023-01-30T21:19:42.944Z,101367.69
2023-01-30T21:22:49.016Z,101374.59
2023-01-30T21:25:54.023Z,101369.38
2023-01-30T21:29:01.825Z,101367.59
2023-01-30T21:32:06.053Z,101372.75
2023-01-30T21:35:10.241Z,101363.19
2023-01-30T21:38:32.771Z,101361.38
2023-01-30T21:42:05.945Z,101352.66
2023-01-30T21:45:10.429Z,101345.75
2023-01-30T21:48:14.731Z,101353.56
2023-01-30T21:51:19.572Z,101349.22
2023-01-30T21:54:24.463Z,101358.75
2023-01-30T21:57:28.801Z,101357.97
2023-01-30T22:00:33.199Z,101352.75
2023-01-30T22:03:37.689Z,101350.19
2023-01-30T22:06:43.768Z,101357.16
2023-01-30T22:09:48.869Z,101353.81
2023-01-30T22:12:53.611Z,101357.31
2023-01-30T22:16:06.488Z,101361.63
2023-01-30T22:19:11.551Z,101355.59
2023-01-30T22:22:16.167Z,101346.97
2023-01-30T22:25:20.748Z,101351.34
2023-01-30T22:28:26.958Z,101359.09
2023-01-30T22:31:35.411Z,101356.47
2023-01-30T22:34:40.578Z,101362.59
2023-01-30T22:37:45.001Z,101360.94
2023-01-30T22:41:01.938Z,101366.09
2023-01-30T22:44:09.739Z,101390.34
2023-01-30T22:47:14.357Z,101393.84
2023-01-30T22:50:18.615Z,101403.41
2023-01-30T22:53:22.820Z,101401.66
2023-01-30T22:56:39.661Z,101405.94
2023-01-30T22:59:44.067Z,101410.31
2023-01-30T23:02:48.435Z,101402.47
2023-01-30T23:06:05.872Z,101409.38
2023-01-30T23:09:15.849Z,101416.22
2023-01-30T23:12:39.068Z,101404.06
2023-01-30T23:15:46.601Z,101402.31
2023-01-30T23:19:03.409Z,101396.31
2023-01-30T23:22:07.640Z,101402.44
2023-01-30T23:25:11.997Z,101396.44
2023-01-30T23:28:16.991Z,101406.88
2023-01-30T23:31:24.906Z,101415.53
2023-01-30T23:34:29.359Z,101413.03
2023-01-30T23:37:51.869Z,101414.69
2023-01-30T23:41:12.290Z,101416.47
2023-01-30T23:44:17.037Z,101421.66
2023-01-30T23:47:21.366Z,101429.41
2023-01-30T23:50:25.715Z,101431.06
2023-01-30T23:53:30.185Z,101431.94
2023-01-30T23:56:38.781Z,101430.13
2023-01-30T23:59:43.558Z,101435.31
